sensor_id;sensor_type;location;lat;lon;timestamp;P1;durP1;ratioP1;P2;durP2;ratioP2
2009;SDS011;1008;47.404;8.502;2023-05-07T00:00:19;2.23;;;1.77;;
2009;SDS011;1008;47.404;8.502;2023-05-07T00:02:46;2.20;;;1.90;;
2009;SDS011;1008;47.404;8.502;2023-05-07T00:05:13;2.93;;;2.13;;
2009;SDS011;1008;47.404;8.502;2023-05-07T00:07:40;2.87;;;2.10;;
2009;SDS011;1008;47.404;8.502;2023-05-07T00:10:07;2.83;;;2.13;;
2009;SDS011;1008;47.404;8.502;2023-05-07T00:12:34;3.13;;;2.30;;
2009;SDS011;1008;47.404;8.502;2023-05-07T00:15:01;2.83;;;1.90;;
2009;SDS011;1008;47.404;8.502;2023-05-07T00:17:30;4.50;;;2.03;;
2009;SDS011;1008;47.404;8.502;2023-05-07T00:19:58;3.13;;;2.37;;
2009;SDS011;1008;47.404;8.502;2023-05-07T00:22:25;2.03;;;1.90;;
2009;SDS011;1008;47.404;8.502;2023-05-07T00:24:52;2.67;;;2.00;;
2009;SDS011;1008;47.404;8.502;2023-05-07T00:27:18;2.20;;;2.00;;
2009;SDS011;1008;47.404;8.502;2023-05-07T00:29:45;2.33;;;2.00;;
2009;SDS011;1008;47.404;8.502;2023-05-07T00:32:12;2.80;;;2.00;;
2009;SDS011;1008;47.404;8.502;2023-05-07T00:34:40;3.87;;;2.33;;
2009;SDS011;1008;47.404;8.502;2023-05-07T00:37:07;2.30;;;2.00;;
2009;SDS011;1008;47.404;8.502;2023-05-07T00:39:34;2.30;;;2.10;;
2009;SDS011;1008;47.404;8.502;2023-05-07T00:42:01;3.10;;;2.43;;
2009;SDS011;1008;47.404;8.502;2023-05-07T00:44:28;2.53;;;2.20;;
2009;SDS011;1008;47.404;8.502;2023-05-07T00:46:55;2.70;;;2.20;;
2009;SDS011;1008;47.404;8.502;2023-05-07T00:49:23;4.30;;;2.57;;
2009;SDS011;1008;47.404;8.502;2023-05-07T00:51:59;4.90;;;2.73;;
2009;SDS011;1008;47.404;8.502;2023-05-07T00:54:26;11.53;;;3.17;;
2009;SDS011;1008;47.404;8.502;2023-05-07T00:56:53;3.00;;;2.50;;
2009;SDS011;1008;47.404;8.502;2023-05-07T00:59:21;2.90;;;2.33;;
2009;SDS011;1008;47.404;8.502;2023-05-07T01:01:48;2.20;;;2.00;;
2009;SDS011;1008;47.404;8.502;2023-05-07T01:04:14;3.03;;;2.67;;
2009;SDS011;1008;47.404;8.502;2023-05-07T01:06:41;2.47;;;2.27;;
2009;SDS011;1008;47.404;8.502;2023-05-07T01:09:10;10.13;;;2.70;;
2009;SDS011;1008;47.404;8.502;2023-05-07T01:11:38;3.03;;;2.20;;
2009;SDS011;1008;47.404;8.502;2023-05-07T01:14:06;2.57;;;2.30;;
2009;SDS011;1008;47.404;8.502;2023-05-07T01:16:34;2.40;;;2.20;;
2009;SDS011;1008;47.404;8.502;2023-05-07T01:19:02;4.53;;;2.00;;
2009;SDS011;1008;47.404;8.502;2023-05-07T01:21:29;2.90;;;2.17;;
2009;SDS011;1008;47.404;8.502;2023-05-07T01:24:01;2.63;;;2.33;;
2009;SDS011;1008;47.404;8.502;2023-05-07T01:26:28;2.50;;;2.20;;
2009;SDS011;1008;47.404;8.502;2023-05-07T01:28:55;3.93;;;2.50;;
2009;SDS011;1008;47.404;8.502;2023-05-07T01:31:21;3.53;;;2.50;;
2009;SDS011;1008;47.404;8.502;2023-05-07T01:33:50;2.20;;;2.00;;
2009;SDS011;1008;47.404;8.502;2023-05-07T01:36:18;4.97;;;2.37;;
2009;SDS011;1008;47.404;8.502;2023-05-07T01:38:48;3.20;;;2.20;;
2009;SDS011;1008;47.404;8.502;2023-05-07T01:41:18;2.70;;;2.20;;
2009;SDS011;1008;47.404;8.502;2023-05-07T01:43:46;2.90;;;2.40;;
2009;SDS011;1008;47.404;8.502;2023-05-07T01:46:13;3.30;;;2.47;;
2009;SDS011;1008;47.404;8.502;2023-05-07T01:48:41;4.80;;;2.90;;
2009;SDS011;1008;47.404;8.502;2023-05-07T01:51:10;2.90;;;2.30;;
2009;SDS011;1008;47.404;8.502;2023-05-07T01:53:38;3.10;;;2.43;;
2009;SDS011;1008;47.404;8.502;2023-05-07T01:56:05;2.73;;;2.10;;
2009;SDS011;1008;47.404;8.502;2023-05-07T01:58:34;3.57;;;2.33;;
2009;SDS011;1008;47.404;8.502;2023-05-07T02:01:01;2.80;;;2.50;;
2009;SDS011;1008;47.404;8.502;2023-05-07T02:03:27;3.60;;;2.43;;
2009;SDS011;1008;47.404;8.502;2023-05-07T02:05:54;3.43;;;2.50;;
2009;SDS011;1008;47.404;8.502;2023-05-07T02:08:21;2.67;;;2.40;;
2009;SDS011;1008;47.404;8.502;2023-05-07T02:10:48;2.70;;;2.50;;
2009;SDS011;1008;47.404;8.502;2023-05-07T02:13:14;3.27;;;2.50;;
2009;SDS011;1008;47.404;8.502;2023-05-07T02:15:43;3.00;;;2.43;;
2009;SDS011;1008;47.404;8.502;2023-05-07T02:18:14;3.60;;;2.93;;
2009;SDS011;1008;47.404;8.502;2023-05-07T02:20:41;6.23;;;2.77;;
2009;SDS011;1008;47.404;8.502;2023-05-07T02:23:08;3.23;;;2.40;;
2009;SDS011;1008;47.404;8.502;2023-05-07T02:25:35;3.10;;;2.63;;
2009;SDS011;1008;47.404;8.502;2023-05-07T02:28:02;4.70;;;2.93;;
2009;SDS011;1008;47.404;8.502;2023-05-07T02:30:29;4.33;;;3.20;;
2009;SDS011;1008;47.404;8.502;2023-05-07T02:32:57;3.77;;;2.90;;
2009;SDS011;1008;47.404;8.502;2023-05-07T02:35:24;4.80;;;3.73;;
2009;SDS011;1008;47.404;8.502;2023-05-07T02:37:51;5.43;;;3.00;;
2009;SDS011;1008;47.404;8.502;2023-05-07T02:40:17;4.00;;;3.10;;
2009;SDS011;1008;47.404;8.502;2023-05-07T02:42:44;4.13;;;3.70;;
2009;SDS011;1008;47.404;8.502;2023-05-07T02:45:11;5.27;;;3.70;;
2009;SDS011;1008;47.404;8.502;2023-05-07T02:47:39;4.53;;;3.40;;
2009;SDS011;1008;47.404;8.502;2023-05-07T02:50:08;5.30;;;3.97;;
2009;SDS011;1008;47.404;8.502;2023-05-07T02:52:34;4.37;;;3.40;;
2009;SDS011;1008;47.404;8.502;2023-05-07T02:55:01;4.70;;;4.00;;
2009;SDS011;1008;47.404;8.502;2023-05-07T02:57:28;3.87;;;3.57;;
2009;SDS011;1008;47.404;8.502;2023-05-07T02:59:55;6.50;;;4.13;;
2009;SDS011;1008;47.404;8.502;2023-05-07T03:02:23;4.20;;;3.57;;
2009;SDS011;1008;47.404;8.502;2023-05-07T03:04:50;6.10;;;4.13;;
2009;SDS011;1008;47.404;8.502;2023-05-07T03:07:18;3.90;;;3.40;;
2009;SDS011;1008;47.404;8.502;2023-05-07T03:09:45;5.50;;;3.77;;
2009;SDS011;1008;47.404;8.502;2023-05-07T03:12:12;4.30;;;3.43;;
2009;SDS011;1008;47.404;8.502;2023-05-07T03:14:39;6.33;;;3.47;;
2009;SDS011;1008;47.404;8.502;2023-05-07T03:17:05;6.27;;;4.70;;
2009;SDS011;1008;47.404;8.502;2023-05-07T03:19:32;9.13;;;7.53;;
2009;SDS011;1008;47.404;8.502;2023-05-07T03:21:59;8.87;;;5.90;;
2009;SDS011;1008;47.404;8.502;2023-05-07T03:24:27;10.23;;;7.10;;
2009;SDS011;1008;47.404;8.502;2023-05-07T03:26:54;12.10;;;8.07;;
2009;SDS011;1008;47.404;8.502;2023-05-07T03:29:21;11.63;;;8.13;;
2009;SDS011;1008;47.404;8.502;2023-05-07T03:31:48;10.03;;;6.60;;
2009;SDS011;1008;47.404;8.502;2023-05-07T03:34:15;10.63;;;7.87;;
2009;SDS011;1008;47.404;8.502;2023-05-07T03:36:47;9.27;;;6.60;;
2009;SDS011;1008;47.404;8.502;2023-05-07T03:39:13;17.40;;;7.27;;
2009;SDS011;1008;47.404;8.502;2023-05-07T03:41:41;8.90;;;7.07;;
2009;SDS011;1008;47.404;8.502;2023-05-07T03:44:08;8.50;;;6.80;;
2009;SDS011;1008;47.404;8.502;2023-05-07T03:46:36;9.13;;;7.03;;
2009;SDS011;1008;47.404;8.502;2023-05-07T03:49:04;7.43;;;6.10;;
2009;SDS011;1008;47.404;8.502;2023-05-07T03:51:30;6.73;;;6.03;;
2009;SDS011;1008;47.404;8.502;2023-05-07T03:53:57;7.10;;;5.90;;
2009;SDS011;1008;47.404;8.502;2023-05-07T03:56:24;8.40;;;5.90;;
2009;SDS011;1008;47.404;8.502;2023-05-07T03:58:54;8.40;;;6.43;;
2009;SDS011;1008;47.404;8.502;2023-05-07T04:01:20;6.70;;;5.53;;
2009;SDS011;1008;47.404;8.502;2023-05-07T04:03:47;7.83;;;5.30;;
2009;SDS011;1008;47.404;8.502;2023-05-07T04:06:15;6.73;;;5.00;;
2009;SDS011;1008;47.404;8.502;2023-05-07T04:08:42;4.60;;;4.13;;
2009;SDS011;1008;47.404;8.502;2023-05-07T04:11:08;6.00;;;4.47;;
2009;SDS011;1008;47.404;8.502;2023-05-07T04:13:35;4.97;;;4.07;;
2009;SDS011;1008;47.404;8.502;2023-05-07T04:16:04;4.50;;;4.10;;
2009;SDS011;1008;47.404;8.502;2023-05-07T04:18:31;5.80;;;4.43;;
2009;SDS011;1008;47.404;8.502;2023-05-07T04:20:58;5.70;;;3.77;;
2009;SDS011;1008;47.404;8.502;2023-05-07T04:23:25;5.50;;;4.10;;
2009;SDS011;1008;47.404;8.502;2023-05-07T04:25:51;4.50;;;4.07;;
2009;SDS011;1008;47.404;8.502;2023-05-07T04:28:19;5.37;;;3.87;;
2009;SDS011;1008;47.404;8.502;2023-05-07T04:30:46;4.83;;;3.57;;
2009;SDS011;1008;47.404;8.502;2023-05-07T04:33:14;5.77;;;4.17;;
2009;SDS011;1008;47.404;8.502;2023-05-07T04:35:41;4.37;;;3.83;;
2009;SDS011;1008;47.404;8.502;2023-05-07T04:38:08;4.67;;;3.57;;
2009;SDS011;1008;47.404;8.502;2023-05-07T04:40:36;4.30;;;3.90;;
2009;SDS011;1008;47.404;8.502;2023-05-07T04:43:03;4.70;;;3.50;;
2009;SDS011;1008;47.404;8.502;2023-05-07T04:45:30;4.67;;;3.53;;
2009;SDS011;1008;47.404;8.502;2023-05-07T04:47:57;4.20;;;3.07;;
2009;SDS011;1008;47.404;8.502;2023-05-07T04:50:25;4.50;;;3.67;;
2009;SDS011;1008;47.404;8.502;2023-05-07T04:52:52;5.07;;;3.87;;
2009;SDS011;1008;47.404;8.502;2023-05-07T04:55:19;5.33;;;3.90;;
2009;SDS011;1008;47.404;8.502;2023-05-07T04:57:46;5.00;;;3.50;;
2009;SDS011;1008;47.404;8.502;2023-05-07T05:00:13;4.70;;;3.70;;
2009;SDS011;1008;47.404;8.502;2023-05-07T05:02:40;3.97;;;3.57;;
2009;SDS011;1008;47.404;8.502;2023-05-07T05:05:07;4.13;;;3.73;;
2009;SDS011;1008;47.404;8.502;2023-05-07T05:07:35;4.90;;;3.60;;
2009;SDS011;1008;47.404;8.502;2023-05-07T05:10:02;6.30;;;3.70;;
2009;SDS011;1008;47.404;8.502;2023-05-07T05:12:31;5.73;;;3.97;;
2009;SDS011;1008;47.404;8.502;2023-05-07T05:14:58;6.60;;;4.40;;
2009;SDS011;1008;47.404;8.502;2023-05-07T05:17:24;5.17;;;4.30;;
2009;SDS011;1008;47.404;8.502;2023-05-07T05:19:51;5.60;;;3.90;;
2009;SDS011;1008;47.404;8.502;2023-05-07T05:22:18;6.40;;;4.03;;
2009;SDS011;1008;47.404;8.502;2023-05-07T05:24:46;6.60;;;3.80;;
2009;SDS011;1008;47.404;8.502;2023-05-07T05:27:13;6.80;;;3.70;;
2009;SDS011;1008;47.404;8.502;2023-05-07T05:29:39;5.67;;;4.17;;
2009;SDS011;1008;47.404;8.502;2023-05-07T05:32:06;5.37;;;3.73;;
2009;SDS011;1008;47.404;8.502;2023-05-07T05:34:33;4.83;;;4.10;;
2009;SDS011;1008;47.404;8.502;2023-05-07T05:37:00;4.90;;;4.20;;
2009;SDS011;1008;47.404;8.502;2023-05-07T05:39:26;5.63;;;4.30;;
2009;SDS011;1008;47.404;8.502;2023-05-07T05:41:54;3.50;;;3.20;;
2009;SDS011;1008;47.404;8.502;2023-05-07T05:44:21;4.23;;;3.40;;
2009;SDS011;1008;47.404;8.502;2023-05-07T05:46:48;6.30;;;4.00;;
2009;SDS011;1008;47.404;8.502;2023-05-07T05:49:15;5.33;;;3.80;;
2009;SDS011;1008;47.404;8.502;2023-05-07T05:51:42;3.77;;;3.27;;
2009;SDS011;1008;47.404;8.502;2023-05-07T05:54:09;5.50;;;3.63;;
2009;SDS011;1008;47.404;8.502;2023-05-07T05:56:36;4.20;;;3.70;;
2009;SDS011;1008;47.404;8.502;2023-05-07T05:59:04;4.50;;;3.77;;
2009;SDS011;1008;47.404;8.502;2023-05-07T06:01:31;4.93;;;3.53;;
2009;SDS011;1008;47.404;8.502;2023-05-07T06:03:58;4.40;;;3.40;;
2009;SDS011;1008;47.404;8.502;2023-05-07T06:06:25;5.13;;;3.70;;
2009;SDS011;1008;47.404;8.502;2023-05-07T06:08:52;4.53;;;3.90;;
2009;SDS011;1008;47.404;8.502;2023-05-07T06:11:19;11.90;;;3.97;;
2009;SDS011;1008;47.404;8.502;2023-05-07T06:13:46;4.30;;;3.20;;
2009;SDS011;1008;47.404;8.502;2023-05-07T06:16:14;5.50;;;3.70;;
2009;SDS011;1008;47.404;8.502;2023-05-07T06:18:41;3.80;;;3.30;;
2009;SDS011;1008;47.404;8.502;2023-05-07T06:21:08;5.73;;;3.53;;
2009;SDS011;1008;47.404;8.502;2023-05-07T06:23:35;5.50;;;4.13;;
2009;SDS011;1008;47.404;8.502;2023-05-07T06:26:02;4.50;;;3.50;;
2009;SDS011;1008;47.404;8.502;2023-05-07T06:28:29;6.57;;;3.90;;
2009;SDS011;1008;47.404;8.502;2023-05-07T06:31:10;6.77;;;4.07;;
2009;SDS011;1008;47.404;8.502;2023-05-07T06:33:39;5.17;;;3.90;;
2009;SDS011;1008;47.404;8.502;2023-05-07T06:36:06;5.50;;;3.70;;
2009;SDS011;1008;47.404;8.502;2023-05-07T06:38:33;6.83;;;3.97;;
2009;SDS011;1008;47.404;8.502;2023-05-07T06:40:59;4.87;;;3.57;;
2009;SDS011;1008;47.404;8.502;2023-05-07T06:43:26;5.00;;;3.53;;
2009;SDS011;1008;47.404;8.502;2023-05-07T06:45:53;5.50;;;3.60;;
2009;SDS011;1008;47.404;8.502;2023-05-07T06:48:19;5.17;;;3.73;;
2009;SDS011;1008;47.404;8.502;2023-05-07T06:50:48;5.03;;;3.90;;
2009;SDS011;1008;47.404;8.502;2023-05-07T06:53:14;3.77;;;3.40;;
2009;SDS011;1008;47.404;8.502;2023-05-07T06:55:41;5.10;;;4.10;;
2009;SDS011;1008;47.404;8.502;2023-05-07T06:58:08;4.83;;;4.00;;
2009;SDS011;1008;47.404;8.502;2023-05-07T07:00:34;6.30;;;4.60;;
2009;SDS011;1008;47.404;8.502;2023-05-07T07:03:01;5.20;;;3.97;;
2009;SDS011;1008;47.404;8.502;2023-05-07T07:05:28;4.77;;;3.93;;
2009;SDS011;1008;47.404;8.502;2023-05-07T07:07:56;5.07;;;4.00;;
2009;SDS011;1008;47.404;8.502;2023-05-07T07:10:23;5.70;;;4.00;;
2009;SDS011;1008;47.404;8.502;2023-05-07T07:12:50;8.80;;;4.53;;
2009;SDS011;1008;47.404;8.502;2023-05-07T07:15:17;5.70;;;4.40;;
2009;SDS011;1008;47.404;8.502;2023-05-07T07:17:45;7.67;;;4.40;;
2009;SDS011;1008;47.404;8.502;2023-05-07T07:20:12;4.10;;;3.70;;
2009;SDS011;1008;47.404;8.502;2023-05-07T07:22:39;4.10;;;2.77;;
2009;SDS011;1008;47.404;8.502;2023-05-07T07:25:08;3.23;;;2.70;;
2009;SDS011;1008;47.404;8.502;2023-05-07T07:27:36;4.17;;;3.10;;
2009;SDS011;1008;47.404;8.502;2023-05-07T07:30:05;5.60;;;3.67;;
2009;SDS011;1008;47.404;8.502;2023-05-07T07:32:32;3.30;;;2.77;;
2009;SDS011;1008;47.404;8.502;2023-05-07T07:35:00;3.50;;;2.90;;
2009;SDS011;1008;47.404;8.502;2023-05-07T07:37:27;2.70;;;2.50;;
2009;SDS011;1008;47.404;8.502;2023-05-07T07:39:54;3.60;;;2.60;;
2009;SDS011;1008;47.404;8.502;2023-05-07T07:42:23;3.83;;;2.83;;
2009;SDS011;1008;47.404;8.502;2023-05-07T07:44:49;3.57;;;2.57;;
2009;SDS011;1008;47.404;8.502;2023-05-07T07:47:16;4.97;;;2.60;;
2009;SDS011;1008;47.404;8.502;2023-05-07T07:49:43;4.27;;;3.00;;
2009;SDS011;1008;47.404;8.502;2023-05-07T07:52:10;3.43;;;2.67;;
2009;SDS011;1008;47.404;8.502;2023-05-07T07:54:36;4.20;;;2.83;;
2009;SDS011;1008;47.404;8.502;2023-05-07T07:57:04;4.30;;;3.40;;
2009;SDS011;1008;47.404;8.502;2023-05-07T07:59:32;5.77;;;2.80;;
2009;SDS011;1008;47.404;8.502;2023-05-07T08:01:59;4.40;;;3.13;;
2009;SDS011;1008;47.404;8.502;2023-05-07T08:04:26;3.47;;;3.10;;
2009;SDS011;1008;47.404;8.502;2023-05-07T08:06:53;4.27;;;2.90;;
2009;SDS011;1008;47.404;8.502;2023-05-07T08:09:21;3.40;;;2.70;;
2009;SDS011;1008;47.404;8.502;2023-05-07T08:11:47;4.00;;;3.23;;
2009;SDS011;1008;47.404;8.502;2023-05-07T08:17:08;3.60;;;2.60;;
2009;SDS011;1008;47.404;8.502;2023-05-07T08:19:35;3.20;;;2.60;;
2009;SDS011;1008;47.404;8.502;2023-05-07T08:22:02;2.73;;;2.53;;
2009;SDS011;1008;47.404;8.502;2023-05-07T08:24:29;2.87;;;2.63;;
2009;SDS011;1008;47.404;8.502;2023-05-07T08:26:56;6.07;;;2.90;;
2009;SDS011;1008;47.404;8.502;2023-05-07T08:29:23;3.50;;;2.60;;
2009;SDS011;1008;47.404;8.502;2023-05-07T08:31:51;3.40;;;2.77;;
2009;SDS011;1008;47.404;8.502;2023-05-07T08:34:18;2.77;;;2.50;;
2009;SDS011;1008;47.404;8.502;2023-05-07T08:36:44;3.60;;;2.60;;
2009;SDS011;1008;47.404;8.502;2023-05-07T08:39:13;3.30;;;3.00;;
2009;SDS011;1008;47.404;8.502;2023-05-07T08:41:41;3.40;;;2.83;;
2009;SDS011;1008;47.404;8.502;2023-05-07T08:44:11;3.00;;;2.53;;
2009;SDS011;1008;47.404;8.502;2023-05-07T08:46:39;3.03;;;2.53;;
2009;SDS011;1008;47.404;8.502;2023-05-07T08:49:09;3.10;;;2.50;;
2009;SDS011;1008;47.404;8.502;2023-05-07T08:51:36;3.10;;;2.80;;
2009;SDS011;1008;47.404;8.502;2023-05-07T08:54:03;4.17;;;2.60;;
2009;SDS011;1008;47.404;8.502;2023-05-07T08:56:31;3.63;;;3.33;;
2009;SDS011;1008;47.404;8.502;2023-05-07T08:58:58;3.20;;;2.90;;
2009;SDS011;1008;47.404;8.502;2023-05-07T09:01:25;4.70;;;3.00;;
2009;SDS011;1008;47.404;8.502;2023-05-07T09:03:52;3.17;;;2.87;;
2009;SDS011;1008;47.404;8.502;2023-05-07T09:06:21;3.57;;;3.23;;
2009;SDS011;1008;47.404;8.502;2023-05-07T09:08:51;3.53;;;3.23;;
2009;SDS011;1008;47.404;8.502;2023-05-07T09:11:19;3.00;;;2.70;;
2009;SDS011;1008;47.404;8.502;2023-05-07T09:13:47;4.13;;;3.00;;
2009;SDS011;1008;47.404;8.502;2023-05-07T09:16:15;5.80;;;2.80;;
2009;SDS011;1008;47.404;8.502;2023-05-07T09:18:42;3.77;;;3.17;;
2009;SDS011;1008;47.404;8.502;2023-05-07T09:21:10;4.30;;;3.57;;
2009;SDS011;1008;47.404;8.502;2023-05-07T09:23:38;3.83;;;3.43;;
2009;SDS011;1008;47.404;8.502;2023-05-07T09:26:06;4.63;;;3.80;;
2009;SDS011;1008;47.404;8.502;2023-05-07T09:28:37;3.97;;;3.57;;
2009;SDS011;1008;47.404;8.502;2023-05-07T09:31:05;5.37;;;3.43;;
2009;SDS011;1008;47.404;8.502;2023-05-07T09:33:32;4.37;;;3.30;;
2009;SDS011;1008;47.404;8.502;2023-05-07T09:36:01;3.40;;;2.70;;
2009;SDS011;1008;47.404;8.502;2023-05-07T09:38:29;3.73;;;3.20;;
2009;SDS011;1008;47.404;8.502;2023-05-07T09:41:04;3.60;;;3.00;;
2009;SDS011;1008;47.404;8.502;2023-05-07T09:43:33;4.80;;;3.23;;
2009;SDS011;1008;47.404;8.502;2023-05-07T09:46:02;3.57;;;2.90;;
2009;SDS011;1008;47.404;8.502;2023-05-07T09:48:32;4.40;;;3.50;;
2009;SDS011;1008;47.404;8.502;2023-05-07T09:51:03;3.83;;;3.00;;
2009;SDS011;1008;47.404;8.502;2023-05-07T09:53:39;3.57;;;3.23;;
2009;SDS011;1008;47.404;8.502;2023-05-07T09:56:09;3.73;;;3.40;;
2009;SDS011;1008;47.404;8.502;2023-05-07T09:58:37;3.30;;;3.00;;
2009;SDS011;1008;47.404;8.502;2023-05-07T10:01:07;5.33;;;3.50;;
2009;SDS011;1008;47.404;8.502;2023-05-07T10:03:36;6.57;;;2.90;;
2009;SDS011;1008;47.404;8.502;2023-05-07T10:06:03;3.60;;;3.30;;
2009;SDS011;1008;47.404;8.502;2023-05-07T10:08:31;3.57;;;3.17;;
2009;SDS011;1008;47.404;8.502;2023-05-07T10:10:59;4.03;;;3.37;;
2009;SDS011;1008;47.404;8.502;2023-05-07T10:13:27;4.00;;;3.00;;
2009;SDS011;1008;47.404;8.502;2023-05-07T10:15:55;3.80;;;3.37;;
2009;SDS011;1008;47.404;8.502;2023-05-07T10:18:23;3.87;;;3.57;;
2009;SDS011;1008;47.404;8.502;2023-05-07T10:20:54;5.67;;;3.40;;
2009;SDS011;1008;47.404;8.502;2023-05-07T10:23:27;5.53;;;3.90;;
2009;SDS011;1008;47.404;8.502;2023-05-07T10:25:55;4.27;;;3.33;;
2009;SDS011;1008;47.404;8.502;2023-05-07T10:28:23;5.83;;;3.80;;
2009;SDS011;1008;47.404;8.502;2023-05-07T10:30:56;4.37;;;3.53;;
2009;SDS011;1008;47.404;8.502;2023-05-07T10:33:33;4.17;;;3.33;;
2009;SDS011;1008;47.404;8.502;2023-05-07T10:36:03;7.50;;;3.87;;
2009;SDS011;1008;47.404;8.502;2023-05-07T10:38:32;4.67;;;3.50;;
2009;SDS011;1008;47.404;8.502;2023-05-07T10:40:59;4.00;;;3.43;;
2009;SDS011;1008;47.404;8.502;2023-05-07T10:43:37;3.90;;;3.13;;
2009;SDS011;1008;47.404;8.502;2023-05-07T10:46:10;3.70;;;3.30;;
2009;SDS011;1008;47.404;8.502;2023-05-07T10:51:37;4.67;;;3.40;;
2009;SDS011;1008;47.404;8.502;2023-05-07T10:54:21;3.50;;;3.13;;
2009;SDS011;1008;47.404;8.502;2023-05-07T10:56:48;5.30;;;3.33;;
2009;SDS011;1008;47.404;8.502;2023-05-07T10:59:33;6.50;;;3.87;;
2009;SDS011;1008;47.404;8.502;2023-05-07T11:02:08;4.43;;;3.50;;
2009;SDS011;1008;47.404;8.502;2023-05-07T11:04:36;4.60;;;3.70;;
2009;SDS011;1008;47.404;8.502;2023-05-07T11:07:26;6.33;;;3.33;;
2009;SDS011;1008;47.404;8.502;2023-05-07T11:09:54;4.33;;;3.50;;
2009;SDS011;1008;47.404;8.502;2023-05-07T11:15:39;4.00;;;3.50;;
2009;SDS011;1008;47.404;8.502;2023-05-07T11:18:09;7.70;;;3.30;;
2009;SDS011;1008;47.404;8.502;2023-05-07T11:20:51;5.17;;;3.90;;
2009;SDS011;1008;47.404;8.502;2023-05-07T11:26:21;6.13;;;3.43;;
2009;SDS011;1008;47.404;8.502;2023-05-07T11:28:48;4.57;;;3.70;;
2009;SDS011;1008;47.404;8.502;2023-05-07T11:31:17;3.83;;;3.43;;
2009;SDS011;1008;47.404;8.502;2023-05-07T11:33:48;4.43;;;3.30;;
2009;SDS011;1008;47.404;8.502;2023-05-07T11:36:16;3.83;;;3.40;;
2009;SDS011;1008;47.404;8.502;2023-05-07T11:38:44;4.30;;;3.80;;
2009;SDS011;1008;47.404;8.502;2023-05-07T11:41:10;5.13;;;4.00;;
2009;SDS011;1008;47.404;8.502;2023-05-07T11:43:38;4.93;;;4.03;;
2009;SDS011;1008;47.404;8.502;2023-05-07T11:46:19;7.63;;;4.27;;
2009;SDS011;1008;47.404;8.502;2023-05-07T11:48:46;5.10;;;4.10;;
2009;SDS011;1008;47.404;8.502;2023-05-07T11:51:18;3.80;;;3.50;;
2009;SDS011;1008;47.404;8.502;2023-05-07T11:53:46;5.30;;;3.60;;
2009;SDS011;1008;47.404;8.502;2023-05-07T11:56:13;4.60;;;3.57;;
2009;SDS011;1008;47.404;8.502;2023-05-07T11:58:41;3.83;;;3.50;;
2009;SDS011;1008;47.404;8.502;2023-05-07T12:01:10;4.23;;;3.40;;
2009;SDS011;1008;47.404;8.502;2023-05-07T12:03:39;4.50;;;3.97;;
2009;SDS011;1008;47.404;8.502;2023-05-07T12:06:10;5.03;;;3.90;;
2009;SDS011;1008;47.404;8.502;2023-05-07T12:08:37;4.30;;;3.50;;
2009;SDS011;1008;47.404;8.502;2023-05-07T12:11:06;4.40;;;3.47;;
2009;SDS011;1008;47.404;8.502;2023-05-07T12:13:36;4.10;;;3.33;;
2009;SDS011;1008;47.404;8.502;2023-05-07T12:16:03;4.83;;;3.60;;
2009;SDS011;1008;47.404;8.502;2023-05-07T12:18:32;5.07;;;3.90;;
2009;SDS011;1008;47.404;8.502;2023-05-07T12:21:00;5.90;;;3.90;;
2009;SDS011;1008;47.404;8.502;2023-05-07T12:23:28;4.57;;;4.00;;
2009;SDS011;1008;47.404;8.502;2023-05-07T12:25:55;4.90;;;4.17;;
2009;SDS011;1008;47.404;8.502;2023-05-07T12:28:22;4.30;;;3.70;;
2009;SDS011;1008;47.404;8.502;2023-05-07T12:30:50;5.37;;;4.40;;
2009;SDS011;1008;47.404;8.502;2023-05-07T12:33:17;4.00;;;3.60;;
2009;SDS011;1008;47.404;8.502;2023-05-07T12:35:46;3.70;;;3.40;;
2009;SDS011;1008;47.404;8.502;2023-05-07T12:38:14;4.37;;;4.03;;
2009;SDS011;1008;47.404;8.502;2023-05-07T12:40:43;3.90;;;3.50;;
2009;SDS011;1008;47.404;8.502;2023-05-07T12:43:15;3.57;;;3.27;;
2009;SDS011;1008;47.404;8.502;2023-05-07T12:45:43;3.60;;;3.30;;
2009;SDS011;1008;47.404;8.502;2023-05-07T12:48:11;3.93;;;3.53;;
2009;SDS011;1008;47.404;8.502;2023-05-07T12:50:38;3.90;;;3.60;;
2009;SDS011;1008;47.404;8.502;2023-05-07T12:53:06;4.73;;;3.77;;
2009;SDS011;1008;47.404;8.502;2023-05-07T12:55:40;5.03;;;3.70;;
2009;SDS011;1008;47.404;8.502;2023-05-07T12:58:09;4.90;;;4.40;;
2009;SDS011;1008;47.404;8.502;2023-05-07T13:00:42;4.80;;;4.23;;
2009;SDS011;1008;47.404;8.502;2023-05-07T13:03:09;5.50;;;4.90;;
2009;SDS011;1008;47.404;8.502;2023-05-07T13:05:36;8.93;;;4.67;;
2009;SDS011;1008;47.404;8.502;2023-05-07T13:08:03;4.73;;;4.23;;
2009;SDS011;1008;47.404;8.502;2023-05-07T13:10:30;5.50;;;4.03;;
2009;SDS011;1008;47.404;8.502;2023-05-07T13:12:57;4.47;;;4.03;;
2009;SDS011;1008;47.404;8.502;2023-05-07T13:15:26;4.53;;;3.73;;
2009;SDS011;1008;47.404;8.502;2023-05-07T13:17:53;4.53;;;4.00;;
2009;SDS011;1008;47.404;8.502;2023-05-07T13:20:20;5.70;;;3.90;;
2009;SDS011;1008;47.404;8.502;2023-05-07T13:22:47;5.33;;;3.90;;
2009;SDS011;1008;47.404;8.502;2023-05-07T13:25:13;5.33;;;4.10;;
2009;SDS011;1008;47.404;8.502;2023-05-07T13:27:40;6.40;;;4.13;;
2009;SDS011;1008;47.404;8.502;2023-05-07T13:30:07;4.47;;;3.80;;
2009;SDS011;1008;47.404;8.502;2023-05-07T13:32:35;4.57;;;4.17;;
2009;SDS011;1008;47.404;8.502;2023-05-07T13:35:02;6.27;;;3.80;;
2009;SDS011;1008;47.404;8.502;2023-05-07T13:37:29;4.00;;;3.63;;
2009;SDS011;1008;47.404;8.502;2023-05-07T13:39:56;4.27;;;3.50;;
2009;SDS011;1008;47.404;8.502;2023-05-07T13:42:23;5.20;;;3.30;;
2009;SDS011;1008;47.404;8.502;2023-05-07T13:44:50;4.50;;;3.70;;
2009;SDS011;1008;47.404;8.502;2023-05-07T13:47:16;4.10;;;3.70;;
2009;SDS011;1008;47.404;8.502;2023-05-07T13:49:44;3.83;;;3.10;;
2009;SDS011;1008;47.404;8.502;2023-05-07T13:52:14;5.50;;;3.60;;
2009;SDS011;1008;47.404;8.502;2023-05-07T13:54:41;3.67;;;3.30;;
2009;SDS011;1008;47.404;8.502;2023-05-07T13:57:08;3.67;;;3.37;;
2009;SDS011;1008;47.404;8.502;2023-05-07T13:59:34;3.53;;;3.17;;
2009;SDS011;1008;47.404;8.502;2023-05-07T14:02:01;4.17;;;3.03;;
2009;SDS011;1008;47.404;8.502;2023-05-07T14:04:28;4.10;;;3.30;;
2009;SDS011;1008;47.404;8.502;2023-05-07T14:06:56;3.63;;;3.20;;
2009;SDS011;1008;47.404;8.502;2023-05-07T14:09:23;3.33;;;2.83;;
2009;SDS011;1008;47.404;8.502;2023-05-07T14:11:50;3.80;;;2.47;;
2009;SDS011;1008;47.404;8.502;2023-05-07T14:14:17;2.50;;;2.30;;
2009;SDS011;1008;47.404;8.502;2023-05-07T14:16:44;3.80;;;2.97;;
2009;SDS011;1008;47.404;8.502;2023-05-07T14:19:11;2.80;;;2.20;;
2009;SDS011;1008;47.404;8.502;2023-05-07T14:21:37;4.70;;;3.10;;
2009;SDS011;1008;47.404;8.502;2023-05-07T14:24:06;2.63;;;2.40;;
2009;SDS011;1008;47.404;8.502;2023-05-07T14:26:33;2.50;;;2.30;;
2009;SDS011;1008;47.404;8.502;2023-05-07T14:29:00;2.60;;;2.20;;
2009;SDS011;1008;47.404;8.502;2023-05-07T14:31:27;2.97;;;2.50;;
2009;SDS011;1008;47.404;8.502;2023-05-07T14:33:55;3.30;;;2.30;;
2009;SDS011;1008;47.404;8.502;2023-05-07T14:36:22;2.67;;;2.00;;
2009;SDS011;1008;47.404;8.502;2023-05-07T14:38:51;2.37;;;2.17;;
2009;SDS011;1008;47.404;8.502;2023-05-07T14:41:19;2.67;;;2.47;;
2009;SDS011;1008;47.404;8.502;2023-05-07T14:43:48;8.00;;;6.43;;
2009;SDS011;1008;47.404;8.502;2023-05-07T14:46:16;3.20;;;2.70;;
2009;SDS011;1008;47.404;8.502;2023-05-07T14:48:43;3.00;;;2.70;;
2009;SDS011;1008;47.404;8.502;2023-05-07T14:51:11;3.60;;;3.00;;
2009;SDS011;1008;47.404;8.502;2023-05-07T14:53:38;3.93;;;2.60;;
2009;SDS011;1008;47.404;8.502;2023-05-07T14:56:04;19.53;;;11.50;;
2009;SDS011;1008;47.404;8.502;2023-05-07T14:58:33;4.57;;;3.60;;
2009;SDS011;1008;47.404;8.502;2023-05-07T15:01:00;6.60;;;3.90;;
2009;SDS011;1008;47.404;8.502;2023-05-07T15:03:27;2.40;;;2.20;;
2009;SDS011;1008;47.404;8.502;2023-05-07T15:05:54;3.10;;;2.40;;
2009;SDS011;1008;47.404;8.502;2023-05-07T15:08:21;3.53;;;2.80;;
2009;SDS011;1008;47.404;8.502;2023-05-07T15:10:48;2.70;;;2.50;;
2009;SDS011;1008;47.404;8.502;2023-05-07T15:13:15;3.77;;;2.37;;
2009;SDS011;1008;47.404;8.502;2023-05-07T15:15:43;2.63;;;2.43;;
2009;SDS011;1008;47.404;8.502;2023-05-07T15:18:10;3.30;;;3.00;;
2009;SDS011;1008;47.404;8.502;2023-05-07T15:20:37;3.93;;;2.70;;
2009;SDS011;1008;47.404;8.502;2023-05-07T15:23:05;5.33;;;3.27;;
2009;SDS011;1008;47.404;8.502;2023-05-07T15:25:34;3.00;;;2.70;;
2009;SDS011;1008;47.404;8.502;2023-05-07T15:28:02;2.77;;;2.53;;
2009;SDS011;1008;47.404;8.502;2023-05-07T15:30:29;3.10;;;2.80;;